sensor_id;sensor_type;location;lat;lon;timestamp;P1;durP1;ratioP1;P2;durP2;ratioP2
65174;SDS011;51761;42.126;24.752;2022-12-18T04:07:50;33.83;;;18.05;;
65174;SDS011;51761;42.126;24.752;2022-12-18T04:10:19;38.17;;;18.50;;
65174;SDS011;51761;42.126;24.752;2022-12-18T04:12:44;36.42;;;18.88;;
65174;SDS011;51761;42.126;24.752;2022-12-18T04:15:10;32.75;;;19.08;;
65174;SDS011;51761;42.126;24.752;2022-12-18T04:17:37;36.63;;;17.27;;
65174;SDS011;51761;42.126;24.752;2022-12-18T04:20:04;34.00;;;18.20;;
65174;SDS011;51761;42.126;24.752;2022-12-18T04:22:30;36.72;;;17.73;;
65174;SDS011;51761;42.126;24.752;2022-12-18T04:24:56;39.83;;;17.95;;
65174;SDS011;51761;42.126;24.752;2022-12-18T04:27:21;29.58;;;17.13;;
65174;SDS011;51761;42.126;24.752;2022-12-18T04:29:46;29.70;;;15.77;;
65174;SDS011;51761;42.126;24.752;2022-12-18T04:32:12;32.13;;;15.55;;
65174;SDS011;51761;42.126;24.752;2022-12-18T04:34:37;24.83;;;14.15;;
65174;SDS011;51761;42.126;24.752;2022-12-18T04:37:03;20.77;;;11.65;;
65174;SDS011;51761;42.126;24.752;2022-12-18T04:39:29;16.35;;;11.00;;
65174;SDS011;51761;42.126;24.752;2022-12-18T04:41:54;21.10;;;11.07;;
65174;SDS011;51761;42.126;24.752;2022-12-18T04:44:20;18.33;;;10.02;;
65174;SDS011;51761;42.126;24.752;2022-12-18T04:46:45;20.00;;;10.50;;
65174;SDS011;51761;42.126;24.752;2022-12-18T04:49:11;19.08;;;9.88;;
65174;SDS011;51761;42.126;24.752;2022-12-18T04:51:36;14.80;;;9.18;;
65174;SDS011;51761;42.126;24.752;2022-12-18T04:54:02;19.45;;;9.75;;
65174;SDS011;51761;42.126;24.752;2022-12-18T04:56:27;14.80;;;8.63;;
65174;SDS011;51761;42.126;24.752;2022-12-18T04:58:53;16.73;;;8.77;;
65174;SDS011;51761;42.126;24.752;2022-12-18T05:01:18;11.95;;;7.45;;
65174;SDS011;51761;42.126;24.752;2022-12-18T05:03:44;15.75;;;8.43;;
65174;SDS011;51761;42.126;24.752;2022-12-18T05:06:10;17.10;;;8.45;;
65174;SDS011;51761;42.126;24.752;2022-12-18T05:08:35;15.32;;;8.52;;
65174;SDS011;51761;42.126;24.752;2022-12-18T05:11:05;16.45;;;8.57;;
65174;SDS011;51761;42.126;24.752;2022-12-18T05:13:32;12.70;;;7.20;;
65174;SDS011;51761;42.126;24.752;2022-12-18T05:15:59;14.02;;;7.38;;
65174;SDS011;51761;42.126;24.752;2022-12-18T05:18:25;14.00;;;7.95;;
65174;SDS011;51761;42.126;24.752;2022-12-18T05:20:51;14.85;;;8.02;;
65174;SDS011;51761;42.126;24.752;2022-12-18T05:23:18;15.27;;;8.40;;
65174;SDS011;51761;42.126;24.752;2022-12-18T05:25:55;14.57;;;8.18;;
65174;SDS011;51761;42.126;24.752;2022-12-18T05:28:26;17.67;;;8.75;;
65174;SDS011;51761;42.126;24.752;2022-12-18T05:30:54;14.93;;;8.80;;
65174;SDS011;51761;42.126;24.752;2022-12-18T05:33:21;15.95;;;8.65;;
65174;SDS011;51761;42.126;24.752;2022-12-18T05:35:59;16.92;;;9.05;;
65174;SDS011;51761;42.126;24.752;2022-12-18T05:38:27;17.13;;;9.35;;
65174;SDS011;51761;42.126;24.752;2022-12-18T05:40:54;14.43;;;7.38;;
65174;SDS011;51761;42.126;24.752;2022-12-18T05:43:21;15.27;;;9.05;;
65174;SDS011;51761;42.126;24.752;2022-12-18T05:45:48;15.48;;;8.20;;
65174;SDS011;51761;42.126;24.752;2022-12-18T05:48:14;15.98;;;8.15;;
65174;SDS011;51761;42.126;24.752;2022-12-18T05:50:40;14.52;;;8.73;;
65174;SDS011;51761;42.126;24.752;2022-12-18T05:53:07;14.80;;;8.10;;
65174;SDS011;51761;42.126;24.752;2022-12-18T05:55:37;16.48;;;7.82;;
65174;SDS011;51761;42.126;24.752;2022-12-18T05:58:04;12.63;;;7.88;;
65174;SDS011;51761;42.126;24.752;2022-12-18T06:00:31;16.27;;;8.30;;
65174;SDS011;51761;42.126;24.752;2022-12-18T06:02:58;14.73;;;7.80;;
65174;SDS011;51761;42.126;24.752;2022-12-18T06:05:24;13.38;;;8.23;;
65174;SDS011;51761;42.126;24.752;2022-12-18T06:07:50;14.75;;;7.88;;
65174;SDS011;51761;42.126;24.752;2022-12-18T06:10:16;14.52;;;8.13;;
65174;SDS011;51761;42.126;24.752;2022-12-18T06:12:41;19.70;;;10.07;;
65174;SDS011;51761;42.126;24.752;2022-12-18T06:15:07;16.30;;;8.70;;
65174;SDS011;51761;42.126;24.752;2022-12-18T06:17:32;17.85;;;8.45;;
65174;SDS011;51761;42.126;24.752;2022-12-18T06:19:58;14.43;;;8.70;;
65174;SDS011;51761;42.126;24.752;2022-12-18T06:22:24;16.10;;;9.07;;
65174;SDS011;51761;42.126;24.752;2022-12-18T06:24:50;18.40;;;9.30;;
65174;SDS011;51761;42.126;24.752;2022-12-18T06:27:15;20.10;;;9.82;;
65174;SDS011;51761;42.126;24.752;2022-12-18T06:29:41;16.75;;;9.07;;
65174;SDS011;51761;42.126;24.752;2022-12-18T06:32:07;16.98;;;9.23;;
65174;SDS011;51761;42.126;24.752;2022-12-18T06:34:33;18.77;;;10.52;;
65174;SDS011;51761;42.126;24.752;2022-12-18T06:37:01;22.40;;;11.15;;
65174;SDS011;51761;42.126;24.752;2022-12-18T06:39:27;16.27;;;8.60;;
65174;SDS011;51761;42.126;24.752;2022-12-18T06:41:53;17.73;;;9.45;;
65174;SDS011;51761;42.126;24.752;2022-12-18T06:44:18;17.50;;;9.95;;
65174;SDS011;51761;42.126;24.752;2022-12-18T06:46:44;19.52;;;11.00;;
65174;SDS011;51761;42.126;24.752;2022-12-18T06:49:10;19.30;;;10.02;;
65174;SDS011;51761;42.126;24.752;2022-12-18T06:51:35;21.67;;;9.30;;
65174;SDS011;51761;42.126;24.752;2022-12-18T06:54:01;15.25;;;8.73;;
65174;SDS011;51761;42.126;24.752;2022-12-18T06:56:27;17.15;;;9.00;;
65174;SDS011;51761;42.126;24.752;2022-12-18T06:58:53;15.70;;;9.10;;
65174;SDS011;51761;42.126;24.752;2022-12-18T07:01:18;16.40;;;8.75;;
65174;SDS011;51761;42.126;24.752;2022-12-18T07:03:44;18.10;;;9.10;;
65174;SDS011;51761;42.126;24.752;2022-12-18T07:06:17;13.82;;;8.10;;
65174;SDS011;51761;42.126;24.752;2022-12-18T07:08:44;14.55;;;8.73;;
65174;SDS011;51761;42.126;24.752;2022-12-18T07:11:11;18.70;;;8.75;;
65174;SDS011;51761;42.126;24.752;2022-12-18T07:13:37;18.27;;;9.57;;
65174;SDS011;51761;42.126;24.752;2022-12-18T07:16:06;14.50;;;8.27;;
65174;SDS011;51761;42.126;24.752;2022-12-18T07:18:39;15.60;;;8.82;;
65174;SDS011;51761;42.126;24.752;2022-12-18T07:21:05;18.25;;;8.50;;
65174;SDS011;51761;42.126;24.752;2022-12-18T07:23:33;15.25;;;8.52;;
65174;SDS011;51761;42.126;24.752;2022-12-18T07:26:00;13.00;;;7.78;;
65174;SDS011;51761;42.126;24.752;2022-12-18T07:28:28;15.25;;;7.72;;
65174;SDS011;51761;42.126;24.752;2022-12-18T07:30:53;15.15;;;8.10;;
65174;SDS011;51761;42.126;24.752;2022-12-18T07:33:19;13.80;;;7.78;;
65174;SDS011;51761;42.126;24.752;2022-12-18T07:35:44;12.00;;;7.03;;
65174;SDS011;51761;42.126;24.752;2022-12-18T07:38:10;13.52;;;7.32;;
65174;SDS011;51761;42.126;24.752;2022-12-18T07:40:35;13.82;;;8.07;;
65174;SDS011;51761;42.126;24.752;2022-12-18T07:43:01;15.43;;;7.38;;
65174;SDS011;51761;42.126;24.752;2022-12-18T07:45:26;14.60;;;7.32;;
65174;SDS011;51761;42.126;24.752;2022-12-18T07:47:52;14.90;;;7.72;;
65174;SDS011;51761;42.126;24.752;2022-12-18T07:50:17;15.77;;;8.13;;
65174;SDS011;51761;42.126;24.752;2022-12-18T07:52:43;17.40;;;8.18;;
65174;SDS011;51761;42.126;24.752;2022-12-18T07:55:08;14.20;;;7.47;;
65174;SDS011;51761;42.126;24.752;2022-12-18T07:57:34;16.45;;;8.05;;
65174;SDS011;51761;42.126;24.752;2022-12-18T07:59:59;17.90;;;8.98;;
65174;SDS011;51761;42.126;24.752;2022-12-18T08:02:25;26.42;;;8.43;;
65174;SDS011;51761;42.126;24.752;2022-12-18T08:04:50;29.85;;;9.32;;
65174;SDS011;51761;42.126;24.752;2022-12-18T08:07:15;20.67;;;9.50;;
65174;SDS011;51761;42.126;24.752;2022-12-18T08:09:41;14.05;;;8.23;;
65174;SDS011;51761;42.126;24.752;2022-12-18T08:12:06;21.15;;;9.50;;
65174;SDS011;51761;42.126;24.752;2022-12-18T08:14:32;20.35;;;8.35;;
65174;SDS011;51761;42.126;24.752;2022-12-18T08:16:57;19.95;;;9.55;;
65174;SDS011;51761;42.126;24.752;2022-12-18T08:19:23;19.92;;;9.77;;
65174;SDS011;51761;42.126;24.752;2022-12-18T08:21:48;18.70;;;9.00;;
65174;SDS011;51761;42.126;24.752;2022-12-18T08:24:14;18.52;;;7.93;;
65174;SDS011;51761;42.126;24.752;2022-12-18T08:26:39;16.92;;;8.43;;
65174;SDS011;51761;42.126;24.752;2022-12-18T08:29:05;14.65;;;7.72;;
65174;SDS011;51761;42.126;24.752;2022-12-18T08:31:31;20.90;;;8.85;;
65174;SDS011;51761;42.126;24.752;2022-12-18T08:33:56;23.23;;;9.60;;
65174;SDS011;51761;42.126;24.752;2022-12-18T08:36:23;15.27;;;7.63;;
65174;SDS011;51761;42.126;24.752;2022-12-18T08:38:49;20.33;;;10.95;;
65174;SDS011;51761;42.126;24.752;2022-12-18T08:41:16;18.20;;;9.80;;
65174;SDS011;51761;42.126;24.752;2022-12-18T08:43:42;20.73;;;9.15;;
65174;SDS011;51761;42.126;24.752;2022-12-18T08:46:27;21.00;;;10.35;;
65174;SDS011;51761;42.126;24.752;2022-12-18T08:48:56;18.60;;;8.77;;
65174;SDS011;51761;42.126;24.752;2022-12-18T08:51:22;14.45;;;7.88;;
65174;SDS011;51761;42.126;24.752;2022-12-18T08:53:47;15.68;;;8.13;;
65174;SDS011;51761;42.126;24.752;2022-12-18T08:56:13;15.85;;;7.68;;
65174;SDS011;51761;42.126;24.752;2022-12-18T08:58:39;13.93;;;6.97;;
65174;SDS011;51761;42.126;24.752;2022-12-18T09:01:08;14.93;;;8.57;;
65174;SDS011;51761;42.126;24.752;2022-12-18T09:03:36;12.32;;;7.20;;
65174;SDS011;51761;42.126;24.752;2022-12-18T09:06:01;12.30;;;7.18;;
65174;SDS011;51761;42.126;24.752;2022-12-18T09:08:27;13.25;;;7.38;;
65174;SDS011;51761;42.126;24.752;2022-12-18T09:10:54;17.30;;;8.10;;
65174;SDS011;51761;42.126;24.752;2022-12-18T09:13:20;16.00;;;8.85;;
65174;SDS011;51761;42.126;24.752;2022-12-18T09:15:47;16.48;;;8.80;;
65174;SDS011;51761;42.126;24.752;2022-12-18T09:18:15;15.98;;;7.63;;
65174;SDS011;51761;42.126;24.752;2022-12-18T09:20:42;16.13;;;8.32;;
65174;SDS011;51761;42.126;24.752;2022-12-18T09:23:08;18.13;;;8.70;;
65174;SDS011;51761;42.126;24.752;2022-12-18T09:25:34;20.83;;;8.23;;
65174;SDS011;51761;42.126;24.752;2022-12-18T09:28:01;22.30;;;8.60;;
65174;SDS011;51761;42.126;24.752;2022-12-18T09:30:28;16.35;;;8.18;;
65174;SDS011;51761;42.126;24.752;2022-12-18T09:32:54;13.60;;;7.47;;
65174;SDS011;51761;42.126;24.752;2022-12-18T09:35:19;13.20;;;7.13;;
65174;SDS011;51761;42.126;24.752;2022-12-18T09:37:45;18.05;;;7.95;;
65174;SDS011;51761;42.126;24.752;2022-12-18T09:40:14;20.85;;;8.02;;
65174;SDS011;51761;42.126;24.752;2022-12-18T09:43:00;14.20;;;7.47;;
65174;SDS011;51761;42.126;24.752;2022-12-18T09:45:29;17.15;;;8.55;;
65174;SDS011;51761;42.126;24.752;2022-12-18T09:48:00;13.52;;;8.02;;
65174;SDS011;51761;42.126;24.752;2022-12-18T09:50:31;14.65;;;7.53;;
65174;SDS011;51761;42.126;24.752;2022-12-18T09:53:10;14.98;;;7.70;;
65174;SDS011;51761;42.126;24.752;2022-12-18T09:55:42;15.50;;;7.95;;
65174;SDS011;51761;42.126;24.752;2022-12-18T10:00:35;13.38;;;7.65;;
65174;SDS011;51761;42.126;24.752;2022-12-18T10:03:08;14.82;;;8.52;;
65174;SDS011;51761;42.126;24.752;2022-12-18T10:10:48;19.10;;;9.20;;
65174;SDS011;51761;42.126;24.752;2022-12-18T10:15:58;20.30;;;9.63;;
65174;SDS011;51761;42.126;24.752;2022-12-18T10:24:19;17.45;;;8.20;;
65174;SDS011;51761;42.126;24.752;2022-12-18T10:26:47;19.98;;;9.43;;
65174;SDS011;51761;42.126;24.752;2022-12-18T10:29:13;17.58;;;8.27;;
65174;SDS011;51761;42.126;24.752;2022-12-18T10:31:40;15.27;;;8.45;;
65174;SDS011;51761;42.126;24.752;2022-12-18T10:34:12;19.17;;;9.63;;
65174;SDS011;51761;42.126;24.752;2022-12-18T10:36:38;29.83;;;11.77;;
65174;SDS011;51761;42.126;24.752;2022-12-18T10:42:09;27.98;;;10.98;;
65174;SDS011;51761;42.126;24.752;2022-12-18T10:44:37;15.52;;;8.77;;
65174;SDS011;51761;42.126;24.752;2022-12-18T10:47:04;24.05;;;8.88;;
65174;SDS011;51761;42.126;24.752;2022-12-18T10:49:32;19.33;;;10.18;;
65174;SDS011;51761;42.126;24.752;2022-12-18T10:52:04;29.15;;;11.65;;
65174;SDS011;51761;42.126;24.752;2022-12-18T10:54:32;25.92;;;11.75;;
65174;SDS011;51761;42.126;24.752;2022-12-18T10:57:28;24.48;;;12.48;;
65174;SDS011;51761;42.126;24.752;2022-12-18T11:02:46;18.73;;;10.10;;
65174;SDS011;51761;42.126;24.752;2022-12-18T11:05:31;20.85;;;10.10;;
65174;SDS011;51761;42.126;24.752;2022-12-18T11:07:58;18.27;;;9.65;;
65174;SDS011;51761;42.126;24.752;2022-12-18T11:10:35;19.63;;;10.32;;
65174;SDS011;51761;42.126;24.752;2022-12-18T11:13:36;22.48;;;9.98;;
65174;SDS011;51761;42.126;24.752;2022-12-18T11:15:55;24.45;;;11.73;;
65174;SDS011;51761;42.126;24.752;2022-12-18T11:20:59;22.00;;;10.57;;
65174;SDS011;51761;42.126;24.752;2022-12-18T11:23:36;18.85;;;9.75;;
65174;SDS011;51761;42.126;24.752;2022-12-18T11:26:09;19.13;;;9.65;;
65174;SDS011;51761;42.126;24.752;2022-12-18T11:28:51;17.23;;;8.90;;
65174;SDS011;51761;42.126;24.752;2022-12-18T11:31:33;18.58;;;9.75;;
65174;SDS011;51761;42.126;24.752;2022-12-18T11:34:19;20.15;;;10.10;;
65174;SDS011;51761;42.126;24.752;2022-12-18T11:36:52;18.93;;;10.27;;
65174;SDS011;51761;42.126;24.752;2022-12-18T11:39:20;20.02;;;9.88;;
65174;SDS011;51761;42.126;24.752;2022-12-18T11:42:40;23.95;;;12.82;;
65174;SDS011;51761;42.126;24.752;2022-12-18T11:44:53;31.20;;;12.77;;
65174;SDS011;51761;42.126;24.752;2022-12-18T11:50:17;22.98;;;12.95;;
65174;SDS011;51761;42.126;24.752;2022-12-18T11:52:47;21.75;;;11.18;;
65174;SDS011;51761;42.126;24.752;2022-12-18T12:00:27;20.38;;;10.23;;
65174;SDS011;51761;42.126;24.752;2022-12-18T12:03:06;21.38;;;10.57;;
65174;SDS011;51761;42.126;24.752;2022-12-18T12:14:13;18.85;;;10.48;;
65174;SDS011;51761;42.126;24.752;2022-12-18T12:17:03;19.90;;;9.45;;
65174;SDS011;51761;42.126;24.752;2022-12-18T12:33:46;18.33;;;10.63;;
65174;SDS011;51761;42.126;24.752;2022-12-18T12:38:56;19.20;;;9.75;;
65174;SDS011;51761;42.126;24.752;2022-12-18T12:41:25;20.02;;;10.35;;
65174;SDS011;51761;42.126;24.752;2022-12-18T12:44:15;20.92;;;10.77;;
65174;SDS011;51761;42.126;24.752;2022-12-18T12:46:47;23.33;;;11.07;;
65174;SDS011;51761;42.126;24.752;2022-12-18T12:49:15;26.08;;;13.48;;
65174;SDS011;51761;42.126;24.752;2022-12-18T12:51:44;19.58;;;9.75;;
65174;SDS011;51761;42.126;24.752;2022-12-18T12:54:17;18.85;;;9.50;;
65174;SDS011;51761;42.126;24.752;2022-12-18T13:05:48;23.70;;;10.80;;
65174;SDS011;51761;42.126;24.752;2022-12-18T13:10:49;20.17;;;9.88;;
65174;SDS011;51761;42.126;24.752;2022-12-18T13:13:56;21.85;;;11.27;;
65174;SDS011;51761;42.126;24.752;2022-12-18T13:16:22;21.83;;;10.63;;
65174;SDS011;51761;42.126;24.752;2022-12-18T13:18:50;18.98;;;10.27;;
65174;SDS011;51761;42.126;24.752;2022-12-18T13:21:21;27.98;;;15.05;;
65174;SDS011;51761;42.126;24.752;2022-12-18T13:23:52;28.30;;;13.55;;
65174;SDS011;51761;42.126;24.752;2022-12-18T13:34:27;21.50;;;11.75;;
65174;SDS011;51761;42.126;24.752;2022-12-18T13:36:55;24.00;;;12.98;;
65174;SDS011;51761;42.126;24.752;2022-12-18T13:39:41;23.17;;;11.95;;
65174;SDS011;51761;42.126;24.752;2022-12-18T13:44:55;31.63;;;15.52;;
65174;SDS011;51761;42.126;24.752;2022-12-18T13:47:38;27.33;;;14.23;;
65174;SDS011;51761;42.126;24.752;2022-12-18T13:50:22;30.10;;;15.18;;
65174;SDS011;51761;42.126;24.752;2022-12-18T13:52:49;40.65;;;18.48;;
65174;SDS011;51761;42.126;24.752;2022-12-18T13:55:17;42.00;;;19.75;;
65174;SDS011;51761;42.126;24.752;2022-12-18T13:57:45;38.00;;;19.08;;
65174;SDS011;51761;42.126;24.752;2022-12-18T14:02:48;38.38;;;18.67;;
65174;SDS011;51761;42.126;24.752;2022-12-18T14:08:13;35.72;;;18.83;;
65174;SDS011;51761;42.126;24.752;2022-12-18T14:10:41;32.63;;;17.45;;
65174;SDS011;51761;42.126;24.752;2022-12-18T14:13:08;33.35;;;18.40;;
65174;SDS011;51761;42.126;24.752;2022-12-18T14:15:38;39.85;;;18.55;;
65174;SDS011;51761;42.126;24.752;2022-12-18T14:20:50;36.92;;;19.10;;
65174;SDS011;51761;42.126;24.752;2022-12-18T14:26:17;36.60;;;18.65;;
65174;SDS011;51761;42.126;24.752;2022-12-18T14:28:46;36.83;;;17.43;;
65174;SDS011;51761;42.126;24.752;2022-12-18T14:31:19;34.80;;;16.00;;
65174;SDS011;51761;42.126;24.752;2022-12-18T14:33:46;36.97;;;17.73;;
65174;SDS011;51761;42.126;24.752;2022-12-18T14:36:13;32.65;;;16.02;;
65174;SDS011;51761;42.126;24.752;2022-12-18T14:38:43;35.88;;;16.88;;
65174;SDS011;51761;42.126;24.752;2022-12-18T14:41:13;38.67;;;18.45;;
65174;SDS011;51761;42.126;24.752;2022-12-18T14:43:41;37.15;;;18.58;;
65174;SDS011;51761;42.126;24.752;2022-12-18T14:48:52;40.28;;;17.83;;
65174;SDS011;51761;42.126;24.752;2022-12-18T14:51:19;39.47;;;19.42;;
65174;SDS011;51761;42.126;24.752;2022-12-18T14:53:47;49.10;;;20.90;;
65174;SDS011;51761;42.126;24.752;2022-12-18T14:56:32;44.65;;;21.50;;
65174;SDS011;51761;42.126;24.752;2022-12-18T14:59:03;45.03;;;21.73;;
65174;SDS011;51761;42.126;24.752;2022-12-18T15:01:37;50.47;;;24.90;;
65174;SDS011;51761;42.126;24.752;2022-12-18T15:04:31;31.45;;;17.13;;
65174;SDS011;51761;42.126;24.752;2022-12-18T15:09:44;37.80;;;18.25;;
65174;SDS011;51761;42.126;24.752;2022-12-18T15:12:37;38.33;;;17.98;;
65174;SDS011;51761;42.126;24.752;2022-12-18T15:15:04;36.67;;;18.65;;
65174;SDS011;51761;42.126;24.752;2022-12-18T15:17:56;34.75;;;17.67;;
65174;SDS011;51761;42.126;24.752;2022-12-18T15:20:22;42.45;;;20.17;;
65174;SDS011;51761;42.126;24.752;2022-12-18T15:22:48;38.17;;;17.98;;
65174;SDS011;51761;42.126;24.752;2022-12-18T15:25:25;32.88;;;16.95;;
65174;SDS011;51761;42.126;24.752;2022-12-18T15:27:57;27.48;;;14.85;;
65174;SDS011;51761;42.126;24.752;2022-12-18T15:30:23;29.10;;;15.05;;
65174;SDS011;51761;42.126;24.752;2022-12-18T15:32:50;34.45;;;16.20;;
65174;SDS011;51761;42.126;24.752;2022-12-18T15:35:18;30.17;;;17.98;;
65174;SDS011;51761;42.126;24.752;2022-12-18T15:37:48;31.85;;;16.98;;
65174;SDS011;51761;42.126;24.752;2022-12-18T15:40:16;33.55;;;17.83;;
65174;SDS011;51761;42.126;24.752;2022-12-18T15:42:46;34.90;;;17.58;;
65174;SDS011;51761;42.126;24.752;2022-12-18T15:45:32;41.13;;;19.10;;
65174;SDS011;51761;42.126;24.752;2022-12-18T15:47:58;40.92;;;21.55;;
65174;SDS011;51761;42.126;24.752;2022-12-18T15:50:24;44.35;;;17.50;;
65174;SDS011;51761;42.126;24.752;2022-12-18T15:52:51;34.13;;;18.40;;
65174;SDS011;51761;42.126;24.752;2022-12-18T15:55:20;38.08;;;21.27;;
65174;SDS011;51761;42.126;24.752;2022-12-18T15:58:05;31.17;;;15.68;;
65174;SDS011;51761;42.126;24.752;2022-12-18T16:00:36;28.38;;;15.43;;
65174;SDS011;51761;42.126;24.752;2022-12-18T16:03:04;28.25;;;15.40;;
65174;SDS011;51761;42.126;24.752;2022-12-18T16:05:30;28.80;;;15.70;;
65174;SDS011;51761;42.126;24.752;2022-12-18T16:07:56;26.60;;;13.30;;
65174;SDS011;51761;42.126;24.752;2022-12-18T16:10:24;39.58;;;22.60;;
65174;SDS011;51761;42.126;24.752;2022-12-18T16:12:50;33.05;;;18.45;;
65174;SDS011;51761;42.126;24.752;2022-12-18T16:15:16;26.25;;;12.88;;
65174;SDS011;51761;42.126;24.752;2022-12-18T16:17:45;26.52;;;14.20;;
65174;SDS011;51761;42.126;24.752;2022-12-18T16:20:16;22.08;;;12.70;;
65174;SDS011;51761;42.126;24.752;2022-12-18T16:22:43;25.27;;;13.77;;
65174;SDS011;51761;42.126;24.752;2022-12-18T16:25:18;30.80;;;15.07;;
65174;SDS011;51761;42.126;24.752;2022-12-18T16:27:47;30.77;;;15.60;;
65174;SDS011;51761;42.126;24.752;2022-12-18T16:30:17;41.83;;;22.00;;
65174;SDS011;51761;42.126;24.752;2022-12-18T16:32:46;27.27;;;13.57;;
65174;SDS011;51761;42.126;24.752;2022-12-18T16:35:12;19.92;;;11.40;;
65174;SDS011;51761;42.126;24.752;2022-12-18T16:37:40;55.20;;;24.20;;
65174;SDS011;51761;42.126;24.752;2022-12-18T16:40:10;19.75;;;10.13;;
65174;SDS011;51761;42.126;24.752;2022-12-18T16:42:38;25.48;;;13.23;;
65174;SDS011;51761;42.126;24.752;2022-12-18T16:45:05;21.77;;;11.40;;
65174;SDS011;51761;42.126;24.752;2022-12-18T16:47:32;21.27;;;10.60;;
65174;SDS011;51761;42.126;24.752;2022-12-18T16:49:58;86.63;;;29.13;;
65174;SDS011;51761;42.126;24.752;2022-12-18T16:52:24;48.15;;;21.75;;
65174;SDS011;51761;42.126;24.752;2022-12-18T16:54:50;48.05;;;22.25;;
65174;SDS011;51761;42.126;24.752;2022-12-18T16:57:16;25.20;;;12.45;;
65174;SDS011;51761;42.126;24.752;2022-12-18T16:59:43;22.85;;;11.50;;
65174;SDS011;51761;42.126;24.752;2022-12-18T17:02:13;23.67;;;12.93;;
65174;SDS011;51761;42.126;24.752;2022-12-18T17:04:41;24.98;;;12.95;;
65174;SDS011;51761;42.126;24.752;2022-12-18T17:07:07;25.92;;;12.00;;
65174;SDS011;51761;42.126;24.752;2022-12-18T17:09:33;27.65;;;12.82;;
65174;SDS011;51761;42.126;24.752;2022-12-18T17:11:59;24.52;;;13.75;;
65174;SDS011;51761;42.126;24.752;2022-12-18T17:14:24;40.90;;;17.55;;
65174;SDS011;51761;42.126;24.752;2022-12-18T17:16:51;39.30;;;16.92;;
65174;SDS011;51761;42.126;24.752;2022-12-18T17:19:18;27.83;;;13.63;;
65174;SDS011;51761;42.126;24.752;2022-12-18T17:21:44;50.15;;;22.35;;
65174;SDS011;51761;42.126;24.752;2022-12-18T17:24:12;44.67;;;22.00;;
65174;SDS011;51761;42.126;24.752;2022-12-18T17:26:38;34.55;;;18.85;;
65174;SDS011;51761;42.126;24.752;2022-12-18T17:29:03;37.33;;;19.35;;
65174;SDS011;51761;42.126;24.752;2022-12-18T17:31:29;28.95;;;14.18;;
65174;SDS011;51761;42.126;24.752;2022-12-18T17:33:55;25.88;;;13.93;;
65174;SDS011;51761;42.126;24.752;2022-12-18T17:36:21;27.05;;;15.63;;
65174;SDS011;51761;42.126;24.752;2022-12-18T17:38:52;23.73;;;11.82;;
65174;SDS011;51761;42.126;24.752;2022-12-18T17:41:18;30.52;;;14.68;;
65174;SDS011;51761;42.126;24.752;2022-12-18T17:43:49;26.70;;;14.52;;
65174;SDS011;51761;42.126;24.752;2022-12-18T17:46:22;21.67;;;11.38;;
65174;SDS011;51761;42.126;24.752;2022-12-18T17:48:48;20.55;;;11.07;;
65174;SDS011;51761;42.126;24.752;2022-12-18T17:51:14;18.45;;;11.00;;
65174;SDS011;51761;42.126;24.752;2022-12-18T17:53:41;18.65;;;11.50;;
65174;SDS011;51761;42.126;24.752;2022-12-18T17:56:06;21.48;;;12.38;;
65174;SDS011;51761;42.126;24.752;2022-12-18T17:58:37;23.63;;;13.90;;
65174;SDS011;51761;42.126;24.752;2022-12-18T18:01:03;24.40;;;13.38;;
65174;SDS011;51761;42.126;24.752;2022-12-18T18:03:30;27.25;;;14.95;;
65174;SDS011;51761;42.126;24.752;2022-12-18T18:05:57;22.92;;;12.35;;
65174;SDS011;51761;42.126;24.752;2022-12-18T18:08:24;23.92;;;12.65;;
65174;SDS011;51761;42.126;24.752;2022-12-18T18:10:50;24.98;;;15.77;;
65174;SDS011;51761;42.126;24.752;2022-12-18T18:13:18;24.50;;;14.23;;
65174;SDS011;51761;42.126;24.752;2022-12-18T18:16:09;29.63;;;15.48;;
65174;SDS011;51761;42.126;24.752;2022-12-18T18:18:36;30.42;;;16.40;;
65174;SDS011;51761;42.126;24.752;2022-12-18T18:21:08;34.50;;;16.20;;
65174;SDS011;51761;42.126;24.752;2022-12-18T18:23:34;28.38;;;15.13;;
65174;SDS011;51761;42.126;24.752;2022-12-18T18:26:03;29.15;;;14.38;;
65174;SDS011;51761;42.126;24.752;2022-12-18T18:28:30;32.20;;;18.25;;
65174;SDS011;51761;42.126;24.752;2022-12-18T18:30:56;30.77;;;16.00;;
65174;SDS011;51761;42.126;24.752;2022-12-18T18:33:21;29.13;;;15.98;;
65174;SDS011;51761;42.126;24.752;2022-12-18T18:35:47;31.63;;;17.45;;
65174;SDS011;51761;42.126;24.752;2022-12-18T18:38:12;36.47;;;16.85;;
65174;SDS011;51761;42.126;24.752;2022-12-18T18:40:38;44.13;;;20.08;;
65174;SDS011;51761;42.126;24.752;2022-12-18T18:43:03;52.10;;;22.05;;
65174;SDS011;51761;42.126;24.752;2022-12-18T18:45:29;53.17;;;22.17;;
65174;SDS011;51761;42.126;24.752;2022-12-18T18:47:55;51.65;;;22.00;;
65174;SDS011;51761;42.126;24.752;2022-12-18T18:50:20;69.45;;;25.15;;
65174;SDS011;51761;42.126;24.752;2022-12-18T18:52:45;71.57;;;25.95;;
65174;SDS011;51761;42.126;24.752;2022-12-18T18:55:13;82.70;;;24.92;;
65174;SDS011;51761;42.126;24.752;2022-12-18T18:57:39;85.55;;;30.02;;
65174;SDS011;51761;42.126;24.752;2022-12-18T19:00:04;95.40;;;28.70;;
65174;SDS011;51761;42.126;24.752;2022-12-18T19:02:30;95.38;;;30.20;;
65174;SDS011;51761;42.126;24.752;2022-12-18T19:04:56;97.30;;;30.08;;
65174;SDS011;51761;42.126;24.752;2022-12-18T19:07:21;87.75;;;26.38;;
65174;SDS011;51761;42.126;24.752;2022-12-18T19:09:47;82.88;;;26.40;;
65174;SDS011;51761;42.126;24.752;2022-12-18T19:12:16;87.00;;;26.88;;
65174;SDS011;51761;42.126;24.752;2022-12-18T19:17:26;81.20;;;22.45;;
65174;SDS011;51761;42.126;24.752;2022-12-18T19:19:52;77.90;;;24.67;;
65174;SDS011;51761;42.126;24.752;2022-12-18T19:22:18;76.28;;;25.30;;
65174;SDS011;51761;42.126;24.752;2022-12-18T19:24:44;70.32;;;24.08;;
65174;SDS011;51761;42.126;24.752;2022-12-18T19:27:09;81.47;;;29.20;;
65174;SDS011;51761;42.126;24.752;2022-12-18T19:29:35;69.68;;;26.95;;
65174;SDS011;51761;42.126;24.752;2022-12-18T19:32:00;55.22;;;23.73;;
65174;SDS011;51761;42.126;24.752;2022-12-18T19:34:26;58.85;;;22.95;;
65174;SDS011;51761;42.126;24.752;2022-12-18T19:36:52;60.72;;;25.08;;
65174;SDS011;51761;42.126;24.752;2022-12-18T19:39:17;61.58;;;25.48;;
65174;SDS011;51761;42.126;24.752;2022-12-18T19:41:43;53.78;;;24.63;;
65174;SDS011;51761;42.126;24.752;2022-12-18T19:44:10;55.97;;;25.35;;
65174;SDS011;51761;42.126;24.752;2022-12-18T19:46:37;53.28;;;23.20;;
65174;SDS011;51761;42.126;24.752;2022-12-18T19:49:03;53.75;;;21.65;;
65174;SDS011;51761;42.126;24.752;2022-12-18T19:51:30;52.75;;;23.70;;
65174;SDS011;51761;42.126;24.752;2022-12-18T19:53:56;59.67;;;24.92;;
65174;SDS011;51761;42.126;24.752;2022-12-18T19:56:23;55.08;;;25.13;;
65174;SDS011;51761;42.126;24.752;2022-12-18T19:58:50;69.55;;;30.73;;
65174;SDS011;51761;42.126;24.752;2022-12-18T20:01:17;53.38;;;25.10;;
65174;SDS011;51761;42.126;24.752;2022-12-18T20:03:45;54.22;;;24.92;;
65174;SDS011;51761;42.126;24.752;2022-12-18T20:06:12;51.38;;;23.00;;
65174;SDS011;51761;42.126;24.752;2022-12-18T20:08:42;45.90;;;22.55;;